Indian Rocks Beach, FL

5:51 AM EDT on September 23, 2014 (GMT -0400)
Oak Dale Manor (unincorporated Largo) | Change Station
CLOSE
Current Station
Personal Weather Station
Location: Largo, FL
Elevation: 46 ft
Nearby Weather Stations

Elev 46 ft 27.91 °N, 82.82 °W | Updated 12 minutes ago

Mostly Cloudy
Mostly Cloudy
73.0 °F
Feels Like 73.0 °F
N
0.0
Wind Variable Wind from SE

Today
High -- | Low -- °F
--% Chance of Precip.
Yesterday
High -- | Low -- °F
Precip. -- in
7:20 AM 7:26 PM
Waning Crescent, 1% visible
Pressure 29.96 in
Visibility 10.0 miles
Clouds Clear
Dew Point 72 °F
Humidity 98%
Rainfall 0.00 in
Snow Depth Not available.
UV 0 out of 12
Pollen 2.10 out of 12
Air Quality Not available.
Flu Activity Not available.
METAR KPIE 230853Z AUTO 00000KT 10SM CLR 23/22 A2995 RMK AO2 SLP143 T02330222 56012

More Conditions Fewer Conditions

Pressure 29.96 in
Visibility 10.0 miles
Clouds Clear
Dew Point 72 °F
Humidity 98%
Rainfall 0.00 in
Snow Depth Not available.
UV 0 out of 12
Pollen 2.10 out of 12
Air Quality Not available.
Flu Activity Not available.
METAR KPIE 230853Z AUTO 00000KT 10SM CLR 23/22 A2995 RMK AO2 SLP143 T02330222 56012

More Conditions Fewer Conditions

10-Day Weather Forecast

Almanac

Astronomy

Sep. 23, 2014 Rise Set
Actual Time 7:20 AM EDT 7:26 PM EDT
Civil Twilight 6:56 AM EDT 7:50 PM EDT
Nautical Twilight 6:29 AM EDT 8:17 PM EDT
Astronomical Twilight 6:02 AM EDT 8:44 PM EDT
Moon 6:44 AM EDT 7:06 PM EDT
Length of Visible Light 12h 53m
Length of Day
12h 06m
Tomorrow will be 1m 39s shorter.
Waning Crescent, 1% of the Moon is Illuminated
Today
Waning Crescent
Sep 24
New
Oct 1
First Quarter
Oct 8
Full
Oct 15
Last Quarter

Today's Extremes

State Highs State Lows

Community

WunderPhotos

Upload Photos

1,755,644 photos uploaded!

Nearby

Air Quality

  Air Quality AQ Index Pollutant
Tuesday Good
PM2.5
Tuesday Good
OZONE

Snow Depth

Station Depth Elevation
No new snow has been reported.

Earthquake Activity

City Distance Mag. Time & Date
No recent earthquake activity has been reported nearby.
Minimum magnitude displayed is 2.5.

Coastal Water Temperatures

Place Temperature
Port Manatee, FL 81.0 °F
St Petersburg, FL 84.9 °F
Old Port Tampa, FL 82.0 °F

Nearby Weather Stations